Beddau, United Kingdom
Current Conditions -  °F | °C
As of 7:20 PM on Thursday 30 Oct 2014 (Local Time) from EGFF Reporting Station
Haze Haze  
Wind Chill: 14°   Ceiling: Unl
Heat Index: 14°   Visibility: 2.1mi
Dew Point: 14°   Wind: 7mph
Humidity: 100%   Direction: 110°ESE
Pressure: 30"   Gusts: NA
Location:  51.55°N, 3.36°W
Report Text: EGFF 301920Z AUTO 11006KT 080V140 3500 BR SCT029 14/14 Q1016
Loading
Personal Weather Stations






























Interactive Weather Map
Tropical Storm Tracking
New forecast layout! Learn more

10-Day Weather Forecast

Advertisements
Track Severe Weather on mobile